Wetterdaten: Mittwoch, 28.04.2010
Datum Zeit Temp. A. Feuchte A. Luftdruck Regen Wind Richtung Richtung Sonnenschein UV Solar Windben
28.04.2010 00:00 9,2 C 82 % 1026,5 hPa 0,0 mm 0,0 km/h (0 Bft) S-SO 157 0 min 0 UV-I 0 W/m 1,6 km/h (1 Bft)
28.04.2010 00:10 8,9 C 82 % 1026,5 hPa 0,0 mm 0,0 km/h (0 Bft) S-SO 157 0 min 0 UV-I 0 W/m 1,6 km/h (1 Bft)
28.04.2010 00:20 8,8 C 84 % 1026,5 hPa 0,0 mm 0,0 km/h (0 Bft) S-SO 157 0 min 0 UV-I 0 W/m 1,6 km/h (1 Bft)
28.04.2010 00:30 8,6 C 84 % 1026,5 hPa 0,0 mm 0,0 km/h (0 Bft) S-SO 157 0 min 0 UV-I 0 W/m 1,6 km/h (1 Bft)
28.04.2010 00:40 8,6 C 84 % 1026,5 hPa 0,0 mm 0,0 km/h (0 Bft) N 0 0 min 0 UV-I 0 W/m 0,0 km/h (0 Bft)
28.04.2010 00:50 8,5 C 84 % 1026,5 hPa 0,0 mm 0,0 km/h (0 Bft) S-SO 157 0 min 0 UV-I 0 W/m 3,2 km/h (1 Bft)
28.04.2010 01:00 8,4 C 84 % 1026,5 hPa 0,0 mm 0,0 km/h (0 Bft) S-SO 157 0 min 0 UV-I 0 W/m 1,6 km/h (1 Bft)
28.04.2010 01:10 8,3 C 85 % 1026,5 hPa 0,0 mm 0,0 km/h (0 Bft) N 0 0 min 0 UV-I 0 W/m 0,0 km/h (0 Bft)
28.04.2010 01:20 8,2 C 85 % 1026,5 hPa 0,0 mm 0,0 km/h (0 Bft) N 0 0 min 0 UV-I 0 W/m 0,0 km/h (0 Bft)
28.04.2010 01:30 8,0 C 85 % 1026,4 hPa 0,0 mm 0,0 km/h (0 Bft) N 0 0 min 0 UV-I 0 W/m 0,0 km/h (0 Bft)
28.04.2010 01:40 7,8 C 86 % 1026,4 hPa 0,0 mm 0,0 km/h (0 Bft) N 0 0 min 0 UV-I 0 W/m 0,0 km/h (0 Bft)
28.04.2010 01:50 7,7 C 87 % 1026,5 hPa 0,0 mm 0,0 km/h (0 Bft) N 0 0 min 0 UV-I 0 W/m 0,0 km/h (0 Bft)
28.04.2010 02:00 7,7 C 87 % 1026,5 hPa 0,0 mm 0,0 km/h (0 Bft) N 0 0 min 0 UV-I 0 W/m 0,0 km/h (0 Bft)
28.04.2010 02:10 7,6 C 87 % 1026,4 hPa 0,0 mm 0,0 km/h (0 Bft) N 0 0 min 0 UV-I 0 W/m 0,0 km/h (0 Bft)
28.04.2010 02:20 7,5 C 87 % 1026,4 hPa 0,0 mm 0,0 km/h (0 Bft) N 0 0 min 0 UV-I 0 W/m 0,0 km/h (0 Bft)
28.04.2010 02:30 7,4 C 87 % 1026,4 hPa 0,0 mm 0,0 km/h (0 Bft) N 0 0 min 0 UV-I 0 W/m 0,0 km/h (0 Bft)
28.04.2010 02:40 7,2 C 87 % 1026,2 hPa 0,0 mm 0,0 km/h (0 Bft) N 0 0 min 0 UV-I 0 W/m 0,0 km/h (0 Bft)
28.04.2010 02:50 7,1 C 88 % 1026,2 hPa 0,0 mm 0,0 km/h (0 Bft) N 0 0 min 0 UV-I 0 W/m 0,0 km/h (0 Bft)
28.04.2010 03:00 6,9 C 89 % 1026,1 hPa 0,0 mm 0,0 km/h (0 Bft) N 0 0 min 0 UV-I 0 W/m 0,0 km/h (0 Bft)
28.04.2010 03:10 6,8 C 89 % 1026,0 hPa 0,0 mm 0,0 km/h (0 Bft) N 0 0 min 0 UV-I 0 W/m 0,0 km/h (0 Bft)
28.04.2010 03:20 6,8 C 89 % 1026,0 hPa 0,0 mm 0,0 km/h (0 Bft) N 0 0 min 0 UV-I 0 W/m 0,0 km/h (0 Bft)
28.04.2010 03:30 6,7 C 89 % 1025,9 hPa 0,0 mm 0,0 km/h (0 Bft) N 0 0 min 0 UV-I 0 W/m 0,0 km/h (0 Bft)
28.04.2010 03:40 6,6 C 89 % 1025,9 hPa 0,0 mm 0,0 km/h (0 Bft) N 0 0 min 0 UV-I 0 W/m 0,0 km/h (0 Bft)
28.04.2010 03:50 6,6 C 89 % 1025,8 hPa 0,0 mm 0,0 km/h (0 Bft) N 0 0 min 0 UV-I 0 W/m 0,0 km/h (0 Bft)
28.04.2010 04:00 6,5 C 90 % 1025,8 hPa 0,0 mm 0,0 km/h (0 Bft) N 0 0 min 0 UV-I 0 W/m 0,0 km/h (0 Bft)
28.04.2010 04:10 6,6 C 90 % 1025,9 hPa 0,0 mm 0,0 km/h (0 Bft) N 0 0 min 0 UV-I 0 W/m 0,0 km/h (0 Bft)
28.04.2010 04:20 6,6 C 90 % 1025,8 hPa 0,0 mm 0,0 km/h (0 Bft) N 0 0 min 0 UV-I 0 W/m 0,0 km/h (0 Bft)
28.04.2010 04:30 6,4 C 90 % 1025,8 hPa 0,0 mm 0,0 km/h (0 Bft) N 0 0 min 0 UV-I 0 W/m 0,0 km/h (0 Bft)
28.04.2010 04:40 6,3 C 90 % 1025,9 hPa 0,0 mm 0,0 km/h (0 Bft) N 0 0 min 0 UV-I 0 W/m 0,0 km/h (0 Bft)
28.04.2010 04:50 6,3 C 90 % 1025,9 hPa 0,0 mm 0,0 km/h (0 Bft) N 0 0 min 0 UV-I 0 W/m 0,0 km/h (0 Bft)
28.04.2010 05:00 6,2 C 91 % 1026,0 hPa 0,0 mm 0,0 km/h (0 Bft) N 0 0 min 0 UV-I 0 W/m 0,0 km/h (0 Bft)
28.04.2010 05:10 6,2 C 91 % 1026,0 hPa 0,0 mm 0,0 km/h (0 Bft) N 0 0 min 0 UV-I 0 W/m 0,0 km/h (0 Bft)
28.04.2010 05:20 6,2 C 90 % 1026,0 hPa 0,0 mm 0,0 km/h (0 Bft) N 0 0 min 0 UV-I 0 W/m 0,0 km/h (0 Bft)
28.04.2010 05:30 6,0 C 90 % 1026,0 hPa 0,0 mm 0,0 km/h (0 Bft) N 0 0 min 0 UV-I 0 W/m 0,0 km/h (0 Bft)
28.04.2010 05:40 5,9 C 91 % 1026,0 hPa 0,0 mm 0,0 km/h (0 Bft) N 0 0 min 0 UV-I 0 W/m 0,0 km/h (0 Bft)
28.04.2010 05:50 5,8 C 90 % 1025,9 hPa 0,0 mm 0,0 km/h (0 Bft) N 0 0 min 0 UV-I 0 W/m 0,0 km/h (0 Bft)
28.04.2010 06:00 5,8 C 91 % 1025,8 hPa 0,0 mm 0,0 km/h (0 Bft) N 0 0 min 0 UV-I 0 W/m 0,0 km/h (0 Bft)
28.04.2010 06:10 6,1 C 91 % 1025,7 hPa 0,0 mm 0,0 km/h (0 Bft) S-SO 157 0 min 0 UV-I 5 W/m 1,6 km/h (1 Bft)
28.04.2010 06:20 6,3 C 91 % 1025,7 hPa 0,0 mm 0,0 km/h (0 Bft) N 0 0 min 0 UV-I 11 W/m 0,0 km/h (0 Bft)
28.04.2010 06:30 6,6 C 91 % 1025,7 hPa 0,0 mm 0,0 km/h (0 Bft) N 0 0 min 0 UV-I 16 W/m 0,0 km/h (0 Bft)
28.04.2010 06:40 6,7 C 91 % 1025,7 hPa 0,0 mm 0,0 km/h (0 Bft) N 0 0 min 0 UV-I 28 W/m 0,0 km/h (0 Bft)
28.04.2010 06:50 6,9 C 91 % 1025,7 hPa 0,0 mm 0,0 km/h (0 Bft) N 0 0 min 0 UV-I 30 W/m 0,0 km/h (0 Bft)
28.04.2010 07:00 7,1 C 90 % 1025,7 hPa 0,0 mm 0,0 km/h (0 Bft) N 0 0 min 0 UV-I 39 W/m 0,0 km/h (0 Bft)
28.04.2010 07:10 7,2 C 90 % 1025,7 hPa 0,0 mm 0,0 km/h (0 Bft) N 0 0 min 0 UV-I 49 W/m 0,0 km/h (0 Bft)
28.04.2010 07:20 7,5 C 90 % 1025,7 hPa 0,0 mm 0,0 km/h (0 Bft) N 0 0 min 0 UV-I 62 W/m 0,0 km/h (0 Bft)
28.04.2010 07:30 7,8 C 89 % 1025,6 hPa 0,0 mm 0,0 km/h (0 Bft) S-SO 157 0 min 0 UV-I 72 W/m 1,6 km/h (1 Bft)
28.04.2010 07:40 8,2 C 88 % 1025,6 hPa 0,0 mm 0,0 km/h (0 Bft) N 0 0 min 0 UV-I 90 W/m 0,0 km/h (0 Bft)
28.04.2010 07:50 8,4 C 86 % 1025,5 hPa 0,0 mm 0,0 km/h (0 Bft) S-SO 157 0 min 1 UV-I 98 W/m 3,2 km/h (1 Bft)
28.04.2010 08:00 8,8 C 86 % 1025,6 hPa 0,0 mm 0,0 km/h (0 Bft) S-SO 152 0 min 1 UV-I 128 W/m 0,0 km/h (0 Bft)
28.04.2010 08:10 9,0 C 85 % 1025,6 hPa 0,0 mm 0,0 km/h (0 Bft) S-SO 157 10 min 1 UV-I 218 W/m 3,2 km/h (1 Bft)
28.04.2010 08:20 9,2 C 85 % 1025,6 hPa 0,0 mm 0,0 km/h (0 Bft) N 0 10 min 1 UV-I 229 W/m 0,0 km/h (0 Bft)
28.04.2010 08:30 9,9 C 83 % 1025,5 hPa 0,0 mm 0,0 km/h (0 Bft) S-SO 157 10 min 1 UV-I 269 W/m 1,6 km/h (1 Bft)
28.04.2010 08:40 10,7 C 80 % 1025,6 hPa 0,0 mm 0,0 km/h (0 Bft) SO 135 10 min 1 UV-I 308 W/m 3,2 km/h (1 Bft)
28.04.2010 08:50 11,3 C 79 % 1025,5 hPa 0,0 mm 0,0 km/h (0 Bft) SO 135 10 min 1 UV-I 325 W/m 1,6 km/h (1 Bft)
28.04.2010 09:00 12,0 C 76 % 1025,5 hPa 0,0 mm 0,0 km/h (0 Bft) SO 135 10 min 2 UV-I 360 W/m 1,6 km/h (1 Bft)
28.04.2010 09:10 12,6 C 73 % 1025,3 hPa 0,0 mm 0,0 km/h (0 Bft) SO 135 10 min 2 UV-I 392 W/m 1,6 km/h (1 Bft)
28.04.2010 09:20 13,2 C 72 % 1025,3 hPa 0,0 mm 0,0 km/h (0 Bft) S-SO 157 10 min 2 UV-I 424 W/m 1,6 km/h (1 Bft)
28.04.2010 09:30 13,8 C 68 % 1025,4 hPa 0,0 mm 0,0 km/h (0 Bft) S-SO 157 10 min 2 UV-I 452 W/m 3,2 km/h (1 Bft)
28.04.2010 09:40 14,4 C 65 % 1025,4 hPa 0,0 mm 0,0 km/h (0 Bft) S-SO 157 10 min 2 UV-I 476 W/m 4,8 km/h (1 Bft)
28.04.2010 09:50 14,8 C 65 % 1025,4 hPa 0,0 mm 0,0 km/h (0 Bft) S 180 10 min 2 UV-I 503 W/m 3,2 km/h (1 Bft)
28.04.2010 10:00 15,1 C 64 % 1025,4 hPa 0,0 mm 0,0 km/h (0 Bft) S 180 10 min 3 UV-I 519 W/m 1,6 km/h (1 Bft)
28.04.2010 10:10 15,6 C 62 % 1025,5 hPa 0,0 mm 1,6 km/h (1 Bft) S-SW 202 10 min 3 UV-I 550 W/m 6,4 km/h (2 Bft)
28.04.2010 10:20 16,3 C 62 % 1025,5 hPa 0,0 mm 1,6 km/h (1 Bft) W-SW 247 10 min 3 UV-I 573 W/m 4,8 km/h (1 Bft)
28.04.2010 10:30 16,5 C 59 % 1025,5 hPa 0,0 mm 1,6 km/h (1 Bft) N-NW 337 10 min 3 UV-I 601 W/m 8,0 km/h (2 Bft)
28.04.2010 10:40 16,8 C 56 % 1025,5 hPa 0,0 mm 1,6 km/h (1 Bft) W 270 10 min 3 UV-I 621 W/m 6,4 km/h (2 Bft)
28.04.2010 10:50 17,3 C 55 % 1025,4 hPa 0,0 mm 0,0 km/h (0 Bft) SW 225 10 min 4 UV-I 645 W/m 8,0 km/h (2 Bft)
28.04.2010 11:00 17,5 C 56 % 1025,5 hPa 0,0 mm 1,6 km/h (1 Bft) W 270 10 min 4 UV-I 657 W/m 8,0 km/h (2 Bft)
28.04.2010 11:10 17,7 C 55 % 1025,3 hPa 0,0 mm 1,6 km/h (1 Bft) NW 315 10 min 4 UV-I 682 W/m 4,8 km/h (1 Bft)
28.04.2010 11:20 17,6 C 54 % 1025,3 hPa 0,0 mm 3,2 km/h (1 Bft) W-NW 292 10 min 4 UV-I 703 W/m 8,0 km/h (2 Bft)
28.04.2010 11:30 17,8 C 53 % 1025,2 hPa 0,0 mm 1,6 km/h (1 Bft) NW 315 10 min 4 UV-I 717 W/m 11,3 km/h (2 Bft)
28.04.2010 11:40 18,1 C 53 % 1025,1 hPa 0,0 mm 1,6 km/h (1 Bft) S-SO 157 10 min 5 UV-I 737 W/m 6,4 km/h (2 Bft)
28.04.2010 11:50 18,4 C 51 % 1025,1 hPa 0,0 mm 1,6 km/h (1 Bft) W-SW 247 10 min 5 UV-I 747 W/m 9,7 km/h (2 Bft)
28.04.2010 12:00 18,4 C 49 % 1024,9 hPa 0,0 mm 1,6 km/h (1 Bft) W-SW 247 10 min 5 UV-I 772 W/m 8,0 km/h (2 Bft)
28.04.2010 12:10 18,6 C 48 % 1024,8 hPa 0,0 mm 1,6 km/h (1 Bft) W 270 10 min 5 UV-I 803 W/m 9,7 km/h (2 Bft)
28.04.2010 12:20 19,1 C 49 % 1024,7 hPa 0,0 mm 1,6 km/h (1 Bft) W 270 10 min 5 UV-I 807 W/m 9,7 km/h (2 Bft)
28.04.2010 12:30 19,5 C 50 % 1024,4 hPa 0,0 mm 0,0 km/h (0 Bft) W 270 10 min 5 UV-I 819 W/m 6,4 km/h (2 Bft)
28.04.2010 12:40 19,8 C 47 % 1024,2 hPa 0,0 mm 1,6 km/h (1 Bft) N-NO 22 10 min 6 UV-I 833 W/m 8,0 km/h (2 Bft)
28.04.2010 12:50 19,4 C 46 % 1024,1 hPa 0,0 mm 3,2 km/h (1 Bft) W 270 10 min 5 UV-I 830 W/m 14,5 km/h (3 Bft)
28.04.2010 13:00 19,5 C 45 % 1024,0 hPa 0,0 mm 1,6 km/h (1 Bft) O-NO 67 10 min 6 UV-I 846 W/m 4,8 km/h (1 Bft)
28.04.2010 13:10 19,9 C 46 % 1024,0 hPa 0,0 mm 1,6 km/h (1 Bft) NO 45 10 min 6 UV-I 847 W/m 4,8 km/h (1 Bft)
28.04.2010 13:20 19,9 C 47 % 1023,7 hPa 0,0 mm 1,6 km/h (1 Bft) W 270 10 min 5 UV-I 837 W/m 6,4 km/h (2 Bft)
28.04.2010 13:30 20,3 C 46 % 1023,5 hPa 0,0 mm 1,6 km/h (1 Bft) NW 315 10 min 5 UV-I 837 W/m 6,4 km/h (2 Bft)
28.04.2010 13:40 20,2 C 47 % 1023,4 hPa 0,0 mm 1,6 km/h (1 Bft) N 360 10 min 5 UV-I 858 W/m 9,7 km/h (2 Bft)
28.04.2010 13:50 20,4 C 45 % 1023,2 hPa 0,0 mm 1,6 km/h (1 Bft) NO 45 10 min 5 UV-I 856 W/m 8,0 km/h (2 Bft)
28.04.2010 14:00 20,6 C 45 % 1023,2 hPa 0,0 mm 3,2 km/h (1 Bft) N-NO 22 10 min 5 UV-I 840 W/m 8,0 km/h (2 Bft)
28.04.2010 14:10 20,5 C 46 % 1023,2 hPa 0,0 mm 1,6 km/h (1 Bft) N-NW 337 10 min 5 UV-I 842 W/m 8,0 km/h (2 Bft)
28.04.2010 14:20 20,7 C 46 % 1023,1 hPa 0,0 mm 1,6 km/h (1 Bft) N 360 10 min 5 UV-I 842 W/m 8,0 km/h (2 Bft)
28.04.2010 14:30 21,3 C 42 % 1023,0 hPa 0,0 mm 1,6 km/h (1 Bft) NO 45 10 min 5 UV-I 830 W/m 8,0 km/h (2 Bft)
28.04.2010 14:40 21,3 C 41 % 1022,8 hPa 0,0 mm 1,6 km/h (1 Bft) NW 315 10 min 5 UV-I 831 W/m 8,0 km/h (2 Bft)
28.04.2010 14:50 21,4 C 45 % 1022,7 hPa 0,0 mm 1,6 km/h (1 Bft) N 360 10 min 5 UV-I 833 W/m 8,0 km/h (2 Bft)
28.04.2010 15:00 22,1 C 41 % 1022,6 hPa 0,0 mm 3,2 km/h (1 Bft) N-NO 22 10 min 5 UV-I 784 W/m 11,3 km/h (2 Bft)
28.04.2010 15:10 21,8 C 41 % 1022,5 hPa 0,0 mm 1,6 km/h (1 Bft) N-NO 22 10 min 4 UV-I 744 W/m 8,0 km/h (2 Bft)
28.04.2010 15:20 21,4 C 42 % 1022,4 hPa 0,0 mm 1,6 km/h (1 Bft) NW 315 10 min 4 UV-I 765 W/m 8,0 km/h (2 Bft)
28.04.2010 15:30 21,6 C 41 % 1022,4 hPa 0,0 mm 3,2 km/h (1 Bft) W-NW 292 10 min 4 UV-I 775 W/m 8,0 km/h (2 Bft)
28.04.2010 15:40 22,1 C 40 % 1022,3 hPa 0,0 mm 1,6 km/h (1 Bft) N 360 10 min 4 UV-I 749 W/m 6,4 km/h (2 Bft)
28.04.2010 15:50 22,5 C 41 % 1022,2 hPa 0,0 mm 1,6 km/h (1 Bft) N-NO 22 10 min 4 UV-I 717 W/m 6,4 km/h (2 Bft)
28.04.2010 16:00 22,7 C 39 % 1021,9 hPa 0,0 mm 0,7 km/h (0 Bft) W-SW 253 10 min 3 UV-I 633 W/m 6,4 km/h (2 Bft)
28.04.2010 16:10 22,2 C 40 % 1021,7 hPa 0,0 mm 1,6 km/h (1 Bft) W-SW 247 10 min 3 UV-I 580 W/m 6,4 km/h (2 Bft)
28.04.2010 16:20 22,1 C 39 % 1021,7 hPa 0,0 mm 1,6 km/h (1 Bft) N 360 10 min 3 UV-I 506 W/m 6,4 km/h (2 Bft)
28.04.2010 16:30 22,2 C 40 % 1021,5 hPa 0,0 mm 1,6 km/h (1 Bft) N 360 10 min 2 UV-I 448 W/m 6,4 km/h (2 Bft)
28.04.2010 16:40 22,1 C 40 % 1021,3 hPa 0,0 mm 0,0 km/h (0 Bft) N 360 10 min 2 UV-I 394 W/m 3,2 km/h (1 Bft)
28.04.2010 16:50 21,8 C 41 % 1021,2 hPa 0,0 mm 1,6 km/h (1 Bft) N 360 10 min 2 UV-I 396 W/m 8,0 km/h (2 Bft)
28.04.2010 17:00 21,7 C 41 % 1021,1 hPa 0,0 mm 1,6 km/h (1 Bft) NO 45 10 min 2 UV-I 357 W/m 4,8 km/h (1 Bft)
28.04.2010 17:10 21,5 C 41 % 1021,1 hPa 0,0 mm 0,0 km/h (0 Bft) N 360 10 min 2 UV-I 308 W/m 3,2 km/h (1 Bft)
28.04.2010 17:20 21,4 C 43 % 1020,9 hPa 0,0 mm 0,0 km/h (0 Bft) N 360 0 min 1 UV-I 269 W/m 3,2 km/h (1 Bft)
28.04.2010 17:30 21,6 C 43 % 1020,8 hPa 0,0 mm 0,0 km/h (0 Bft) N 360 10 min 1 UV-I 306 W/m 6,4 km/h (2 Bft)
28.04.2010 17:40 21,6 C 42 % 1020,6 hPa 0,0 mm 1,6 km/h (1 Bft) N 360 10 min 1 UV-I 306 W/m 6,4 km/h (2 Bft)
28.04.2010 17:50 21,3 C 43 % 1020,5 hPa 0,0 mm 0,0 km/h (0 Bft) N 360 10 min 1 UV-I 253 W/m 1,6 km/h (1 Bft)
28.04.2010 18:00 21,2 C 45 % 1020,4 hPa 0,0 mm 0,0 km/h (0 Bft) N 360 0 min 1 UV-I 200 W/m 3,2 km/h (1 Bft)
28.04.2010 18:10 21,2 C 44 % 1020,2 hPa 0,0 mm 0,0 km/h (0 Bft) N 360 0 min 1 UV-I 200 W/m 4,8 km/h (1 Bft)
28.04.2010 18:20 21,1 C 45 % 1020,2 hPa 0,0 mm 0,0 km/h (0 Bft) N 360 10 min 1 UV-I 200 W/m 1,6 km/h (1 Bft)
28.04.2010 18:30 21,0 C 45 % 1020,1 hPa 0,0 mm 0,0 km/h (0 Bft) N 360 0 min 1 UV-I 169 W/m 1,6 km/h (1 Bft)
28.04.2010 18:40 20,8 C 44 % 1019,9 hPa 0,0 mm 0,0 km/h (0 Bft) N 360 0 min 1 UV-I 158 W/m 1,6 km/h (1 Bft)
28.04.2010 18:50 20,8 C 45 % 1019,8 hPa 0,0 mm 0,0 km/h (0 Bft) N 360 10 min 1 UV-I 188 W/m 1,6 km/h (1 Bft)
28.04.2010 19:00 20,9 C 48 % 1019,7 hPa 0,0 mm 0,0 km/h (0 Bft) N 360 10 min 1 UV-I 188 W/m 3,2 km/h (1 Bft)
28.04.2010 19:10 21,1 C 45 % 1019,6 hPa 0,0 mm 0,0 km/h (0 Bft) N-NO 22 10 min 1 UV-I 188 W/m 4,8 km/h (1 Bft)
28.04.2010 19:20 20,9 C 45 % 1019,5 hPa 0,0 mm 0,0 km/h (0 Bft) O-NO 67 10 min 1 UV-I 149 W/m 4,8 km/h (1 Bft)
28.04.2010 19:30 20,7 C 43 % 1019,3 hPa 0,0 mm 0,0 km/h (0 Bft) O-NO 67 10 min 0 UV-I 118 W/m 4,8 km/h (1 Bft)
28.04.2010 19:40 20,3 C 45 % 1019,4 hPa 0,0 mm 1,6 km/h (1 Bft) O 90 0 min 0 UV-I 79 W/m 4,8 km/h (1 Bft)
28.04.2010 19:50 19,8 C 45 % 1019,3 hPa 0,0 mm 0,0 km/h (0 Bft) O 90 0 min 0 UV-I 63 W/m 3,2 km/h (1 Bft)
28.04.2010 20:00 19,4 C 46 % 1019,3 hPa 0,0 mm 1,6 km/h (1 Bft) O 90 0 min 0 UV-I 49 W/m 4,8 km/h (1 Bft)
28.04.2010 20:10 19,1 C 46 % 1019,1 hPa 0,0 mm 1,6 km/h (1 Bft) O 90 0 min 0 UV-I 35 W/m 4,8 km/h (1 Bft)
28.04.2010 20:20 18,8 C 47 % 1019,1 hPa 0,0 mm 0,0 km/h (0 Bft) O 90 10 min 0 UV-I 28 W/m 4,8 km/h (1 Bft)
28.04.2010 20:30 18,5 C 47 % 1019,0 hPa 0,0 mm 0,0 km/h (0 Bft) O 90 10 min 0 UV-I 19 W/m 3,2 km/h (1 Bft)
28.04.2010 20:40 18,1 C 49 % 1018,9 hPa 0,0 mm 0,0 km/h (0 Bft) O 90 0 min 0 UV-I 0 W/m 3,2 km/h (1 Bft)
28.04.2010 20:50 17,7 C 51 % 1018,9 hPa 0,0 mm 0,0 km/h (0 Bft) O 90 0 min 0 UV-I 0 W/m 1,6 km/h (1 Bft)
28.04.2010 21:00 17,2 C 53 % 1018,9 hPa 0,0 mm 0,0 km/h (0 Bft) O 90 0 min 0 UV-I 0 W/m 1,6 km/h (1 Bft)
28.04.2010 21:10 16,7 C 56 % 1018,8 hPa 0,0 mm 0,0 km/h (0 Bft) N 0 0 min 0 UV-I 0 W/m 0,0 km/h (0 Bft)
28.04.2010 21:20 16,2 C 58 % 1018,9 hPa 0,0 mm 0,0 km/h (0 Bft) N 0 0 min 0 UV-I 0 W/m 0,0 km/h (0 Bft)
28.04.2010 21:30 15,8 C 61 % 1018,9 hPa 0,0 mm 0,0 km/h (0 Bft) N 0 0 min 0 UV-I 0 W/m 0,0 km/h (0 Bft)
28.04.2010 21:40 15,3 C 63 % 1018,9 hPa 0,0 mm 0,0 km/h (0 Bft) N 0 0 min 0 UV-I 0 W/m 0,0 km/h (0 Bft)
28.04.2010 21:50 15,0 C 61 % 1018,9 hPa 0,0 mm 0,0 km/h (0 Bft) O 90 0 min 0 UV-I 0 W/m 3,2 km/h (1 Bft)
28.04.2010 22:00 15,2 C 56 % 1018,9 hPa 0,0 mm 0,0 km/h (0 Bft) O 90 0 min 0 UV-I 0 W/m 3,2 km/h (1 Bft)
28.04.2010 22:10 15,7 C 54 % 1018,8 hPa 0,0 mm 0,0 km/h (0 Bft) SO 135 0 min 0 UV-I 0 W/m 8,0 km/h (2 Bft)
28.04.2010 22:20 15,8 C 55 % 1018,8 hPa 0,0 mm 0,0 km/h (0 Bft) SO 135 0 min 0 UV-I 0 W/m 3,2 km/h (1 Bft)
28.04.2010 22:30 15,4 C 55 % 1018,7 hPa 0,0 mm 0,0 km/h (0 Bft) SO 135 0 min 0 UV-I 0 W/m 1,6 km/h (1 Bft)
28.04.2010 22:40 15,2 C 56 % 1018,7 hPa 0,0 mm 0,0 km/h (0 Bft) SO 135 0 min 0 UV-I 0 W/m 1,6 km/h (1 Bft)
28.04.2010 22:50 15,1 C 55 % 1018,7 hPa 0,0 mm 0,0 km/h (0 Bft) SO 135 0 min 0 UV-I 0 W/m 1,6 km/h (1 Bft)
28.04.2010 23:00 15,0 C 55 % 1018,6 hPa 0,0 mm 0,0 km/h (0 Bft) SO 135 0 min 0 UV-I 0 W/m 1,6 km/h (1 Bft)
28.04.2010 23:10 15,0 C 55 % 1018,5 hPa 0,0 mm 0,0 km/h (0 Bft) SO 135 0 min 0 UV-I 0 W/m 1,6 km/h (1 Bft)
28.04.2010 23:20 15,0 C 55 % 1018,5 hPa 0,0 mm 0,0 km/h (0 Bft) SO 135 0 min 0 UV-I 0 W/m 3,2 km/h (1 Bft)
28.04.2010 23:30 14,8 C 56 % 1018,4 hPa 0,0 mm 0,0 km/h (0 Bft) SO 135 0 min 0 UV-I 0 W/m 1,6 km/h (1 Bft)
28.04.2010 23:40 14,5 C 57 % 1018,3 hPa 0,0 mm 0,0 km/h (0 Bft) SO 135 0 min 0 UV-I 0 W/m 1,6 km/h (1 Bft)
28.04.2010 23:50 14,3 C 58 % 1018,2 hPa 0,0 mm 0,0 km/h (0 Bft) SO 135 0 min 0 UV-I 0 W/m 3,2 km/h (1 Bft)
_ Min-Zeit 06:00 16:00 23:50 - 00:00 - - - - - 00:40
Minimum _ 5,7 C 39 % 1018,2 hPa - 0,0 km/h (0 Bft) - - - - - 0,0 km/h (0 Bft)
_ Max-Zeit 15:50 05:00 00:00 00:00 11:20 - - 08:10 12:40 13:40 12:50
Maximum _ 22,8 C 91 % 1026,5 hPa 0,0 mm 3,2 km/h
W-NW (1 Bft)
- - 10 min 6 UV-I 858 W/m 14,5 km/h
W (3 Bft)
Durchschnitt _ 14,5 C 64 % 1023,4 hPa #0,0 mm 0,5 km/h (0 Bft) N - #11:00 h 3 UV-I 444 W/m 3,3 km/h (1 Bft)